createdAt,value
2022-08-05T00:02:55.988Z,1.60
2022-08-05T00:06:22.147Z,1.60
2022-08-05T00:09:32.368Z,1.45
2022-08-05T00:12:56.140Z,1.63
2022-08-05T00:16:06.293Z,1.50
2022-08-05T00:19:16.742Z,1.50
2022-08-05T00:22:29.870Z,1.40
2022-08-05T00:25:46.143Z,1.48
2022-08-05T00:28:55.759Z,1.30
2022-08-05T00:32:12.775Z,1.20
2022-08-05T00:35:23.350Z,1.30
2022-08-05T00:38:41.365Z,1.25
2022-08-05T00:41:54.965Z,1.20
2022-08-05T00:45:08.866Z,1.13
2022-08-05T00:48:27.722Z,1.50
2022-08-05T00:51:50.672Z,1.30
2022-08-05T00:55:00.190Z,1.67
2022-08-05T00:58:08.806Z,1.13
2022-08-05T01:01:42.019Z,1.00
2022-08-05T01:04:50.468Z,1.10
2022-08-05T01:08:40.620Z,1.20
2022-08-05T01:11:37.336Z,1.10
2022-08-05T01:14:53.048Z,1.13
2022-08-05T01:18:08.439Z,1.27
2022-08-05T01:21:38.568Z,1.40
2022-08-05T01:24:56.970Z,0.90
2022-08-05T01:28:25.225Z,0.85
2022-08-05T01:31:44.787Z,1.00
2022-08-05T01:34:59.487Z,1.20
2022-08-05T01:38:10.476Z,1.00
2022-08-05T01:41:37.504Z,0.90
2022-08-05T01:44:54.149Z,1.00
2022-08-05T01:48:04.105Z,0.90
2022-08-05T01:51:19.780Z,0.80
2022-08-05T01:54:32.833Z,0.80
2022-08-05T01:58:10.553Z,0.90
2022-08-05T02:01:14.579Z,0.85
2022-08-05T02:04:27.734Z,0.73
2022-08-05T02:07:38.789Z,0.80
2022-08-05T02:10:54.997Z,0.80
2022-08-05T02:14:12.397Z,0.73
2022-08-05T02:18:28.228Z,1.10
2022-08-05T02:21:03.485Z,1.38
2022-08-05T02:24:19.600Z,1.10
2022-08-05T02:27:58.272Z,1.30
2022-08-05T02:31:08.288Z,1.20
2022-08-05T02:34:25.942Z,1.20
2022-08-05T02:37:37.796Z,1.30
2022-08-05T02:40:47.535Z,1.20
2022-08-05T02:44:06.200Z,1.40
2022-08-05T02:47:22.701Z,1.40
2022-08-05T02:50:32.838Z,1.50
2022-08-05T02:53:42.401Z,1.40
2022-08-05T02:56:51.163Z,1.27
2022-08-05T02:59:59.663Z,1.30
2022-08-05T03:03:10.473Z,1.40
2022-08-05T03:06:56.225Z,1.23
2022-08-05T03:09:51.944Z,1.10
2022-08-05T03:16:08.424Z,1.20
2022-08-05T03:19:34.010Z,1.10
2022-08-05T03:22:49.916Z,0.90
2022-08-05T03:26:04.879Z,1.25
2022-08-05T03:29:46.064Z,1.20
2022-08-05T03:32:56.026Z,1.30
2022-08-05T03:36:04.428Z,1.27
2022-08-05T03:39:27.138Z,1.10
2022-08-05T03:42:51.519Z,1.17
2022-08-05T03:46:00.795Z,1.30
2022-08-05T03:49:08.999Z,1.20
2022-08-05T03:52:37.483Z,1.20
2022-08-05T03:56:10.817Z,1.13
2022-08-05T03:59:24.789Z,0.98
2022-08-05T04:02:37.659Z,0.90
2022-08-05T04:05:46.839Z,0.88
2022-08-05T04:08:56.709Z,0.90
2022-08-05T04:12:24.438Z,0.90
2022-08-05T04:15:35.953Z,0.90
2022-08-05T04:18:47.602Z,1.05
2022-08-05T04:22:09.545Z,1.00
2022-08-05T04:25:24.161Z,1.00
2022-08-05T04:28:51.388Z,0.98
2022-08-05T04:32:00.229Z,0.98
2022-08-05T04:35:17.534Z,0.90
2022-08-05T04:38:39.530Z,0.82
2022-08-05T04:41:50.937Z,0.93
2022-08-05T04:45:00.936Z,0.60
2022-08-05T04:48:18.740Z,1.20
2022-08-05T04:51:36.341Z,0.50
2022-08-05T04:54:45.472Z,0.40
2022-08-05T04:57:54.152Z,0.50
2022-08-05T05:01:04.039Z,0.50
2022-08-05T05:04:12.447Z,0.80
2022-08-05T05:07:29.229Z,0.70
2022-08-05T05:10:42.060Z,0.60
2022-08-05T05:14:06.644Z,0.52
2022-08-05T05:17:23.335Z,0.70
2022-08-05T05:20:32.922Z,0.57
2022-08-05T05:24:04.304Z,0.70
2022-08-05T05:27:09.141Z,0.40
2022-08-05T05:30:30.702Z,0.80
2022-08-05T05:33:58.643Z,0.47
2022-08-05T05:37:08.026Z,0.60
2022-08-05T05:40:16.835Z,0.50
2022-08-05T05:43:58.071Z,0.50
2022-08-05T05:46:56.223Z,0.38
2022-08-05T05:50:08.929Z,0.60
2022-08-05T05:53:24.477Z,0.47
2022-08-05T05:56:35.367Z,0.70
2022-08-05T05:59:43.506Z,0.70
2022-08-05T06:02:51.690Z,0.45
2022-08-05T06:06:01.249Z,0.50
2022-08-05T06:09:09.435Z,0.65
2022-08-05T06:12:27.284Z,0.70
2022-08-05T06:16:27.592Z,0.80
2022-08-05T06:19:05.898Z,0.60
2022-08-05T06:22:24.461Z,0.70
2022-08-05T06:26:12.530Z,0.70
2022-08-05T06:29:03.372Z,0.60
2022-08-05T06:32:21.290Z,0.47
2022-08-05T06:36:07.270Z,0.40
2022-08-05T06:39:04.301Z,0.70
2022-08-05T06:42:13.659Z,0.65
2022-08-05T06:45:44.798Z,0.38
2022-08-05T06:48:56.248Z,0.57
2022-08-05T06:52:07.697Z,0.50
2022-08-05T06:55:37.332Z,0.70
2022-08-05T06:58:46.785Z,0.32
2022-08-05T07:01:55.071Z,0.43
2022-08-05T07:05:03.179Z,0.73
2022-08-05T07:08:23.335Z,1.35
2022-08-05T07:11:36.979Z,0.50
2022-08-05T07:15:03.032Z,0.40
2022-08-05T07:18:13.557Z,0.35
2022-08-05T07:21:28.612Z,0.80
2022-08-05T07:24:56.644Z,0.68
2022-08-05T07:28:11.493Z,0.60
2022-08-05T07:31:20.412Z,0.35
2022-08-05T07:34:48.589Z,0.30
2022-08-05T07:38:06.321Z,0.40
2022-08-05T07:42:13.174Z,0.32
2022-08-05T07:44:52.382Z,0.30
2022-08-05T07:48:00.637Z,0.30
2022-08-05T07:51:23.620Z,0.32
2022-08-05T07:54:38.619Z,0.20
2022-08-05T07:58:02.189Z,0.30
2022-08-05T08:01:12.974Z,0.40
2022-08-05T08:04:37.317Z,0.40
2022-08-05T08:07:59.775Z,0.15
2022-08-05T08:11:08.977Z,0.20
2022-08-05T08:14:21.876Z,0.45
2022-08-05T08:17:31.589Z,0.28
2022-08-05T08:20:45.091Z,0.30
2022-08-05T08:24:13.568Z,0.20
2022-08-05T08:27:23.122Z,0.40
2022-08-05T08:30:48.055Z,0.38
2022-08-05T08:33:59.697Z,0.30
2022-08-05T08:37:08.132Z,0.30
2022-08-05T08:40:17.016Z,0.30
2022-08-05T08:45:20.621Z,0.40
2022-08-05T08:46:55.547Z,0.32
2022-08-05T08:50:30.873Z,0.32
2022-08-05T08:53:44.393Z,0.43
2022-08-05T08:56:53.888Z,0.40
2022-08-05T09:00:07.110Z,0.35
2022-08-05T09:03:16.323Z,0.40
2022-08-05T09:06:31.229Z,0.55
2022-08-05T09:09:39.933Z,0.30
2022-08-05T09:12:51.068Z,0.30
2022-08-05T09:16:01.610Z,0.40
2022-08-05T09:19:12.052Z,0.60
2022-08-05T09:22:31.079Z,0.40
2022-08-05T09:26:01.912Z,0.40
2022-08-05T09:29:10.098Z,0.35
2022-08-05T09:32:40.093Z,0.52
2022-08-05T09:35:57.118Z,0.40
2022-08-05T09:39:18.125Z,0.22
2022-08-05T09:42:40.502Z,0.40
2022-08-05T09:46:06.379Z,0.30
2022-08-05T09:49:54.555Z,0.50
2022-08-05T09:52:58.985Z,0.30
2022-08-05T09:56:12.903Z,0.30
2022-08-05T09:59:27.682Z,0.30
2022-08-05T10:02:37.845Z,0.30
2022-08-05T10:05:47.260Z,0.40
2022-08-05T10:08:56.235Z,0.40
2022-08-05T10:12:30.655Z,0.30
2022-08-05T10:15:41.717Z,0.43
2022-08-05T10:18:50.715Z,0.43
2022-08-05T10:22:00.133Z,0.32
2022-08-05T10:25:09.267Z,0.50
2022-08-05T10:28:29.434Z,0.45
2022-08-05T10:32:52.724Z,0.47
2022-08-05T10:35:08.653Z,0.35
2022-08-05T10:38:19.655Z,0.35
2022-08-05T10:41:46.827Z,0.50
2022-08-05T10:44:58.229Z,0.22
2022-08-05T10:48:52.782Z,0.30
2022-08-05T10:52:04.987Z,0.20
2022-08-05T10:55:15.993Z,0.30
2022-08-05T10:58:36.054Z,0.45
2022-08-05T11:02:14.463Z,0.40
2022-08-05T11:05:38.721Z,0.50
2022-08-05T11:09:24.447Z,0.30
2022-08-05T11:12:50.914Z,0.30
2022-08-05T11:16:33.700Z,0.25
2022-08-05T11:20:17.176Z,0.35
2022-08-05T11:23:33.343Z,0.30
2022-08-05T11:26:43.518Z,0.30
2022-08-05T11:30:01.700Z,0.80
2022-08-05T11:33:43.757Z,0.32
2022-08-05T11:36:57.687Z,0.60
2022-08-05T11:40:06.266Z,0.20
2022-08-05T11:44:04.382Z,0.30
2022-08-05T11:47:09.436Z,0.57
2022-08-05T11:50:20.651Z,0.30
2022-08-05T11:53:33.741Z,0.20
2022-08-05T11:56:52.277Z,0.10
2022-08-05T12:00:00.496Z,0.40
2022-08-05T12:03:28.726Z,0.20
2022-08-05T12:06:39.619Z,0.20
2022-08-05T12:10:06.096Z,0.10
2022-08-05T12:13:48.998Z,0.30
2022-08-05T12:16:48.621Z,0.20
2022-08-05T12:20:27.690Z,0.13
2022-08-05T12:23:25.481Z,0.17
2022-08-05T12:26:43.867Z,0.28
2022-08-05T12:30:03.178Z,0.38
2022-08-05T12:33:27.498Z,0.25
2022-08-05T12:36:37.030Z,0.17
2022-08-05T12:39:51.402Z,0.30
2022-08-05T12:43:01.226Z,0.20
2022-08-05T12:46:26.165Z,0.30
2022-08-05T12:50:04.139Z,0.28
2022-08-05T12:53:17.753Z,0.13
2022-08-05T12:56:34.888Z,0.20
2022-08-05T13:01:57.418Z,0.20
2022-08-05T13:03:16.698Z,0.25
2022-08-05T13:06:27.592Z,0.20
2022-08-05T13:09:36.168Z,0.30
2022-08-05T13:12:57.603Z,0.25
2022-08-05T13:16:15.467Z,0.30
2022-08-05T13:19:51.018Z,0.20
2022-08-05T13:22:56.505Z,0.38
2022-08-05T13:26:06.631Z,0.32
2022-08-05T13:29:18.876Z,0.50
2022-08-05T13:32:33.011Z,0.20
2022-08-05T13:35:50.410Z,0.38
2022-08-05T13:39:00.178Z,0.10
2022-08-05T13:42:14.522Z,0.20
2022-08-05T13:45:23.134Z,0.28
2022-08-05T13:48:58.547Z,0.10
2022-08-05T13:52:12.815Z,0.35
2022-08-05T13:55:40.778Z,0.20
2022-08-05T13:58:52.944Z,0.15
2022-08-05T14:02:02.384Z,0.17
2022-08-05T14:05:15.109Z,0.20
2022-08-05T14:08:32.681Z,0.35
2022-08-05T14:12:04.114Z,0.20
2022-08-05T14:16:05.476Z,0.20
2022-08-05T14:18:38.801Z,0.50
2022-08-05T14:22:10.062Z,0.22
2022-08-05T14:25:21.896Z,0.30
2022-08-05T14:28:31.620Z,0.20
2022-08-05T14:32:03.026Z,0.10
2022-08-05T14:35:10.623Z,0.38
2022-08-05T14:38:32.788Z,0.32
2022-08-05T14:42:02.430Z,0.20
2022-08-05T14:45:11.636Z,0.30
2022-08-05T14:48:33.580Z,0.10
2022-08-05T14:51:43.214Z,0.40
2022-08-05T14:54:53.920Z,0.32
2022-08-05T14:58:02.112Z,0.22
2022-08-05T15:01:24.222Z,0.22
2022-08-05T15:04:49.825Z,0.20
2022-08-05T15:08:05.675Z,0.30
2022-08-05T15:11:21.885Z,0.20
2022-08-05T15:14:50.740Z,0.45
2022-08-05T15:17:58.977Z,0.50
2022-08-05T15:21:11.984Z,0.20
2022-08-05T15:24:22.118Z,0.20
2022-08-05T15:27:35.851Z,0.30
2022-08-05T15:30:45.774Z,0.30
2022-08-05T15:34:05.214Z,0.45
2022-08-05T15:38:08.474Z,0.38
2022-08-05T15:41:20.515Z,0.20
2022-08-05T15:44:20.791Z,0.20
2022-08-05T15:47:29.030Z,0.30
2022-08-05T15:50:37.528Z,0.13
2022-08-05T15:53:50.412Z,0.20
2022-08-05T15:56:59.760Z,0.40
2022-08-05T16:00:11.627Z,0.25
2022-08-05T16:03:20.053Z,0.30
2022-08-05T16:06:29.305Z,0.40
2022-08-05T16:09:41.477Z,0.30
2022-08-05T16:12:50.611Z,0.40
2022-08-05T16:16:01.848Z,0.73
2022-08-05T16:19:12.041Z,1.00
2022-08-05T16:22:34.033Z,0.70
2022-08-05T16:25:42.931Z,0.40
2022-08-05T16:28:53.527Z,0.40
2022-08-05T16:32:04.210Z,0.30
2022-08-05T16:35:12.823Z,0.25
2022-08-05T16:38:28.143Z,0.30
2022-08-05T16:42:15.054Z,0.30
2022-08-05T16:46:04.178Z,0.30
2022-08-05T16:48:36.847Z,0.47
2022-08-05T16:51:50.965Z,0.50
2022-08-05T16:54:59.601Z,0.40
2022-08-05T16:58:08.559Z,0.28
2022-08-05T17:01:18.732Z,0.40
2022-08-05T17:04:29.096Z,0.38
2022-08-05T17:07:43.590Z,0.57
2022-08-05T17:11:03.036Z,0.50
2022-08-05T17:14:12.952Z,0.77
2022-08-05T17:17:22.486Z,1.00
2022-08-05T17:20:32.094Z,0.55
2022-08-05T17:24:04.637Z,1.02
2022-08-05T17:27:08.579Z,0.50
2022-08-05T17:30:19.078Z,0.60
2022-08-05T17:33:39.020Z,0.40
2022-08-05T17:36:58.364Z,0.45
2022-08-05T17:40:10.096Z,0.40
2022-08-05T17:43:19.184Z,1.90
2022-08-05T17:46:47.352Z,0.52
2022-08-05T17:50:03.811Z,0.70
2022-08-05T17:53:14.212Z,0.73
2022-08-05T17:56:23.046Z,0.82
2022-08-05T17:59:36.903Z,1.05
2022-08-05T18:02:47.673Z,0.80
2022-08-05T18:05:55.924Z,1.05
2022-08-05T18:09:14.651Z,1.10
2022-08-05T18:12:24.545Z,0.60
2022-08-05T18:15:34.529Z,0.68
2022-08-05T18:18:47.892Z,0.50
2022-08-05T18:22:09.418Z,0.70
2022-08-05T18:25:20.984Z,0.30
2022-08-05T18:28:30.298Z,0.50
2022-08-05T18:31:43.061Z,0.40
2022-08-05T18:34:51.596Z,0.43
2022-08-05T18:37:59.760Z,0.50
2022-08-05T18:41:58.533Z,0.65
2022-08-05T18:44:49.160Z,0.68
2022-08-05T18:48:03.698Z,0.70
2022-08-05T18:52:05.515Z,0.60
2022-08-05T18:54:58.022Z,0.70
2022-08-05T18:58:07.575Z,0.60
2022-08-05T19:01:33.193Z,0.50
2022-08-05T19:05:02.092Z,0.35
2022-08-05T19:08:30.591Z,0.40
2022-08-05T19:12:00.394Z,0.60
2022-08-05T19:15:25.057Z,0.50
2022-08-05T19:18:38.324Z,0.70
2022-08-05T19:21:48.095Z,0.60
2022-08-05T19:25:00.878Z,0.60
2022-08-05T19:28:10.815Z,0.50
2022-08-05T19:31:21.481Z,0.50
2022-08-05T19:34:31.112Z,0.60
2022-08-05T19:38:04.636Z,0.65
2022-08-05T19:41:09.167Z,0.82
2022-08-05T19:44:18.800Z,0.55
2022-08-05T19:47:28.481Z,0.70
2022-08-05T19:50:38.293Z,0.80
2022-08-05T19:54:05.304Z,0.75
2022-08-05T19:57:14.084Z,0.80
2022-08-05T20:00:27.018Z,0.50
2022-08-05T20:03:40.897Z,0.75
2022-08-05T20:06:50.791Z,0.75
2022-08-05T20:09:59.002Z,0.93
2022-08-05T20:13:07.222Z,0.75
2022-08-05T20:16:19.410Z,0.60
2022-08-05T20:19:35.989Z,0.80
2022-08-05T20:22:44.666Z,0.60
2022-08-05T20:25:55.425Z,0.90
2022-08-05T20:29:03.556Z,0.68
2022-08-05T20:32:13.052Z,0.60
2022-08-05T20:35:22.616Z,0.80
2022-08-05T20:38:35.408Z,0.90
2022-08-05T20:41:45.158Z,0.63
2022-08-05T20:44:53.729Z,0.90
2022-08-05T20:48:02.544Z,0.83
2022-08-05T20:51:12.811Z,0.70
2022-08-05T20:54:25.295Z,1.00
2022-08-05T20:57:43.009Z,0.70
2022-08-05T21:00:54.887Z,0.70
2022-08-05T21:04:07.263Z,1.10
2022-08-05T21:07:21.015Z,1.02
2022-08-05T21:10:31.190Z,0.73
2022-08-05T21:13:48.452Z,1.02
2022-08-05T21:17:05.855Z,1.00
2022-08-05T21:20:14.448Z,0.65
2022-08-05T21:23:42.608Z,1.20
2022-08-05T21:26:56.181Z,0.65
2022-08-05T21:30:08.107Z,0.70
2022-08-05T21:33:22.339Z,0.80
2022-08-05T21:36:32.970Z,0.90
2022-08-05T21:39:42.546Z,0.95
2022-08-05T21:42:55.878Z,0.90
2022-08-05T21:46:07.845Z,0.87
2022-08-05T21:49:58.545Z,0.82
2022-08-05T21:52:47.106Z,0.98
2022-08-05T21:56:09.841Z,0.90
2022-08-05T21:59:30.472Z,0.70
2022-08-05T22:02:50.757Z,1.00
2022-08-05T22:06:00.845Z,1.20
2022-08-05T22:09:13.776Z,1.10
2022-08-05T22:12:25.023Z,0.90
2022-08-05T22:16:00.285Z,0.60
2022-08-05T22:19:03.106Z,0.80
2022-08-05T22:22:27.227Z,0.85
2022-08-05T22:26:10.376Z,0.90
2022-08-05T22:29:26.562Z,0.90
2022-08-05T22:32:35.120Z,0.80
2022-08-05T22:35:48.525Z,0.70
2022-08-05T22:38:57.715Z,0.90
2022-08-05T22:42:25.505Z,0.77
2022-08-05T22:45:36.034Z,0.67
2022-08-05T22:48:45.640Z,0.80
2022-08-05T22:52:05.106Z,0.75
2022-08-05T22:55:19.242Z,0.67
2022-08-05T22:58:28.755Z,0.70
2022-08-05T23:02:04.109Z,0.60
2022-08-05T23:05:07.354Z,0.70
2022-08-05T23:08:15.729Z,0.50
2022-08-05T23:11:24.540Z,0.80
2022-08-05T23:14:32.822Z,0.77
2022-08-05T23:18:01.402Z,0.80
2022-08-05T23:21:10.613Z,0.60
2022-08-05T23:24:18.869Z,0.73
2022-08-05T23:27:28.924Z,0.90
2022-08-05T23:30:53.054Z,0.60
2022-08-05T23:34:06.945Z,0.40
2022-08-05T23:37:15.268Z,0.77
2022-08-05T23:40:27.263Z,0.57
2022-08-05T23:44:04.376Z,0.57
2022-08-05T23:47:15.387Z,0.53
2022-08-05T23:50:25.339Z,0.50
2022-08-05T23:53:46.358Z,0.50
2022-08-05T23:56:58.218Z,0.60
